sensor_id;sensor_type;location;lat;lon;timestamp;P1;durP1;ratioP1;P2;durP2;ratioP2
10801;SDS011;5453;50.852;7.102;2023-08-30T00:01:05;5.22;;;3.00;;
10801;SDS011;5453;50.852;7.102;2023-08-30T00:03:38;4.90;;;2.75;;
10801;SDS011;5453;50.852;7.102;2023-08-30T00:06:11;4.68;;;2.90;;
10801;SDS011;5453;50.852;7.102;2023-08-30T00:08:44;3.83;;;2.88;;
10801;SDS011;5453;50.852;7.102;2023-08-30T00:11:16;4.28;;;2.63;;
10801;SDS011;5453;50.852;7.102;2023-08-30T00:14:26;4.93;;;2.75;;
10801;SDS011;5453;50.852;7.102;2023-08-30T00:16:59;4.90;;;2.75;;
10801;SDS011;5453;50.852;7.102;2023-08-30T00:19:32;4.35;;;2.78;;
10801;SDS011;5453;50.852;7.102;2023-08-30T00:23:21;4.97;;;2.78;;
10801;SDS011;5453;50.852;7.102;2023-08-30T00:25:54;4.72;;;2.92;;
10801;SDS011;5453;50.852;7.102;2023-08-30T00:28:26;4.97;;;3.00;;
10801;SDS011;5453;50.852;7.102;2023-08-30T00:30:59;5.88;;;2.78;;
10801;SDS011;5453;50.852;7.102;2023-08-30T00:33:31;4.45;;;2.75;;
10801;SDS011;5453;50.852;7.102;2023-08-30T00:36:05;4.50;;;2.92;;
10801;SDS011;5453;50.852;7.102;2023-08-30T00:38:39;3.90;;;2.88;;
10801;SDS011;5453;50.852;7.102;2023-08-30T00:41:11;6.00;;;2.80;;
10801;SDS011;5453;50.852;7.102;2023-08-30T00:43:46;5.03;;;3.00;;
10801;SDS011;5453;50.852;7.102;2023-08-30T00:46:18;5.68;;;3.00;;
10801;SDS011;5453;50.852;7.102;2023-08-30T00:48:50;5.35;;;2.92;;
10801;SDS011;5453;50.852;7.102;2023-08-30T00:51:23;5.68;;;3.25;;
10801;SDS011;5453;50.852;7.102;2023-08-30T00:53:57;6.22;;;3.47;;
10801;SDS011;5453;50.852;7.102;2023-08-30T00:56:31;6.03;;;3.53;;
10801;SDS011;5453;50.852;7.102;2023-08-30T00:59:04;5.47;;;3.58;;
10801;SDS011;5453;50.852;7.102;2023-08-30T01:01:37;6.25;;;3.53;;
10801;SDS011;5453;50.852;7.102;2023-08-30T01:04:11;5.28;;;3.15;;
10801;SDS011;5453;50.852;7.102;2023-08-30T01:06:44;5.97;;;3.55;;
10801;SDS011;5453;50.852;7.102;2023-08-30T01:09:20;5.97;;;3.38;;
10801;SDS011;5453;50.852;7.102;2023-08-30T01:11:59;4.55;;;3.28;;
10801;SDS011;5453;50.852;7.102;2023-08-30T01:14:38;5.85;;;3.72;;
10801;SDS011;5453;50.852;7.102;2023-08-30T01:17:17;5.30;;;3.50;;
10801;SDS011;5453;50.852;7.102;2023-08-30T01:19:53;5.35;;;3.30;;
10801;SDS011;5453;50.852;7.102;2023-08-30T01:22:37;6.15;;;3.83;;
10801;SDS011;5453;50.852;7.102;2023-08-30T01:25:20;5.43;;;3.42;;
10801;SDS011;5453;50.852;7.102;2023-08-30T01:28:06;5.35;;;3.63;;
10801;SDS011;5453;50.852;7.102;2023-08-30T01:30:40;5.38;;;3.40;;
10801;SDS011;5453;50.852;7.102;2023-08-30T01:33:14;5.65;;;3.55;;
10801;SDS011;5453;50.852;7.102;2023-08-30T01:35:49;5.22;;;3.13;;
10801;SDS011;5453;50.852;7.102;2023-08-30T01:38:22;6.70;;;3.63;;
10801;SDS011;5453;50.852;7.102;2023-08-30T01:40:56;5.28;;;3.30;;
10801;SDS011;5453;50.852;7.102;2023-08-30T01:43:31;5.22;;;3.42;;
10801;SDS011;5453;50.852;7.102;2023-08-30T01:46:08;4.97;;;3.63;;
10801;SDS011;5453;50.852;7.102;2023-08-30T01:48:41;5.20;;;3.00;;
10801;SDS011;5453;50.852;7.102;2023-08-30T01:51:15;5.28;;;3.25;;
10801;SDS011;5453;50.852;7.102;2023-08-30T01:53:48;5.72;;;3.65;;
10801;SDS011;5453;50.852;7.102;2023-08-30T01:56:23;4.35;;;2.83;;
10801;SDS011;5453;50.852;7.102;2023-08-30T01:58:57;4.50;;;2.83;;
10801;SDS011;5453;50.852;7.102;2023-08-30T02:01:33;5.53;;;3.22;;
10801;SDS011;5453;50.852;7.102;2023-08-30T02:04:05;5.82;;;2.95;;
10801;SDS011;5453;50.852;7.102;2023-08-30T02:06:39;4.95;;;3.28;;
10801;SDS011;5453;50.852;7.102;2023-08-30T02:09:23;4.93;;;3.33;;
10801;SDS011;5453;50.852;7.102;2023-08-30T02:12:01;4.57;;;3.28;;
10801;SDS011;5453;50.852;7.102;2023-08-30T02:14:40;5.03;;;3.45;;
10801;SDS011;5453;50.852;7.102;2023-08-30T02:17:16;5.25;;;3.20;;
10801;SDS011;5453;50.852;7.102;2023-08-30T02:19:49;5.65;;;3.40;;
10801;SDS011;5453;50.852;7.102;2023-08-30T02:22:24;4.72;;;3.25;;
10801;SDS011;5453;50.852;7.102;2023-08-30T02:24:56;4.43;;;2.90;;
10801;SDS011;5453;50.852;7.102;2023-08-30T02:27:29;5.82;;;3.72;;
10801;SDS011;5453;50.852;7.102;2023-08-30T02:30:04;6.45;;;3.45;;
10801;SDS011;5453;50.852;7.102;2023-08-30T02:32:38;6.03;;;3.55;;
10801;SDS011;5453;50.852;7.102;2023-08-30T02:35:10;4.88;;;3.28;;
10801;SDS011;5453;50.852;7.102;2023-08-30T02:37:43;5.15;;;3.10;;
10801;SDS011;5453;50.852;7.102;2023-08-30T02:40:15;6.35;;;3.53;;
10801;SDS011;5453;50.852;7.102;2023-08-30T02:42:48;5.43;;;3.50;;
10801;SDS011;5453;50.852;7.102;2023-08-30T02:45:22;5.75;;;3.30;;
10801;SDS011;5453;50.852;7.102;2023-08-30T02:47:55;4.18;;;3.10;;
10801;SDS011;5453;50.852;7.102;2023-08-30T02:50:28;5.13;;;3.22;;
10801;SDS011;5453;50.852;7.102;2023-08-30T02:53:00;6.47;;;3.50;;
10801;SDS011;5453;50.852;7.102;2023-08-30T02:55:31;4.68;;;3.55;;
10801;SDS011;5453;50.852;7.102;2023-08-30T02:58:04;5.28;;;3.30;;
10801;SDS011;5453;50.852;7.102;2023-08-30T03:00:38;7.03;;;3.67;;
10801;SDS011;5453;50.852;7.102;2023-08-30T03:03:12;4.57;;;3.20;;
10801;SDS011;5453;50.852;7.102;2023-08-30T03:05:48;6.32;;;3.38;;
10801;SDS011;5453;50.852;7.102;2023-08-30T03:08:21;5.43;;;3.08;;
10801;SDS011;5453;50.852;7.102;2023-08-30T03:10:54;4.72;;;3.17;;
10801;SDS011;5453;50.852;7.102;2023-08-30T03:13:27;5.13;;;3.03;;
10801;SDS011;5453;50.852;7.102;2023-08-30T03:16:01;5.80;;;3.00;;
10801;SDS011;5453;50.852;7.102;2023-08-30T03:18:33;6.43;;;3.67;;
10801;SDS011;5453;50.852;7.102;2023-08-30T03:21:07;5.90;;;3.42;;
10801;SDS011;5453;50.852;7.102;2023-08-30T03:23:49;4.72;;;3.15;;
10801;SDS011;5453;50.852;7.102;2023-08-30T03:26:21;5.65;;;3.42;;
10801;SDS011;5453;50.852;7.102;2023-08-30T03:28:54;5.40;;;3.58;;
10801;SDS011;5453;50.852;7.102;2023-08-30T03:31:31;4.45;;;3.08;;
10801;SDS011;5453;50.852;7.102;2023-08-30T03:34:04;4.95;;;3.28;;
10801;SDS011;5453;50.852;7.102;2023-08-30T03:36:36;5.80;;;3.55;;
10801;SDS011;5453;50.852;7.102;2023-08-30T03:39:09;5.63;;;3.72;;
10801;SDS011;5453;50.852;7.102;2023-08-30T03:41:45;6.28;;;3.53;;
10801;SDS011;5453;50.852;7.102;2023-08-30T03:44:18;5.95;;;3.42;;
10801;SDS011;5453;50.852;7.102;2023-08-30T03:46:52;5.35;;;3.53;;
10801;SDS011;5453;50.852;7.102;2023-08-30T03:49:26;6.70;;;4.25;;
10801;SDS011;5453;50.852;7.102;2023-08-30T03:51:59;6.90;;;3.83;;
10801;SDS011;5453;50.852;7.102;2023-08-30T03:54:32;5.43;;;3.42;;
10801;SDS011;5453;50.852;7.102;2023-08-30T03:57:05;5.43;;;3.40;;
10801;SDS011;5453;50.852;7.102;2023-08-30T03:59:41;5.82;;;3.33;;
10801;SDS011;5453;50.852;7.102;2023-08-30T04:02:14;5.63;;;3.60;;
10801;SDS011;5453;50.852;7.102;2023-08-30T04:04:47;6.25;;;3.80;;
10801;SDS011;5453;50.852;7.102;2023-08-30T04:07:20;7.03;;;4.15;;
10801;SDS011;5453;50.852;7.102;2023-08-30T04:09:52;5.88;;;4.05;;
10801;SDS011;5453;50.852;7.102;2023-08-30T04:12:25;5.65;;;3.63;;
10801;SDS011;5453;50.852;7.102;2023-08-30T04:14:59;8.10;;;3.75;;
10801;SDS011;5453;50.852;7.102;2023-08-30T04:17:33;5.70;;;3.38;;
10801;SDS011;5453;50.852;7.102;2023-08-30T04:20:07;5.78;;;3.40;;
10801;SDS011;5453;50.852;7.102;2023-08-30T04:22:41;5.53;;;3.45;;
10801;SDS011;5453;50.852;7.102;2023-08-30T04:25:16;5.18;;;3.47;;
10801;SDS011;5453;50.852;7.102;2023-08-30T04:27:49;6.47;;;3.80;;
10801;SDS011;5453;50.852;7.102;2023-08-30T04:30:21;6.85;;;3.65;;
10801;SDS011;5453;50.852;7.102;2023-08-30T04:32:57;6.60;;;3.60;;
10801;SDS011;5453;50.852;7.102;2023-08-30T04:35:29;6.10;;;3.42;;
10801;SDS011;5453;50.852;7.102;2023-08-30T04:38:03;5.40;;;3.50;;
10801;SDS011;5453;50.852;7.102;2023-08-30T04:40:35;5.85;;;3.50;;
10801;SDS011;5453;50.852;7.102;2023-08-30T04:43:09;5.93;;;3.70;;
10801;SDS011;5453;50.852;7.102;2023-08-30T04:45:47;6.45;;;3.42;;
10801;SDS011;5453;50.852;7.102;2023-08-30T04:48:21;5.55;;;3.45;;
10801;SDS011;5453;50.852;7.102;2023-08-30T04:50:58;6.40;;;3.78;;
10801;SDS011;5453;50.852;7.102;2023-08-30T04:53:36;5.78;;;3.50;;
10801;SDS011;5453;50.852;7.102;2023-08-30T04:56:11;6.25;;;3.78;;
10801;SDS011;5453;50.852;7.102;2023-08-30T04:58:44;5.80;;;3.63;;
10801;SDS011;5453;50.852;7.102;2023-08-30T05:01:18;6.55;;;3.40;;
10801;SDS011;5453;50.852;7.102;2023-08-30T05:03:59;6.60;;;3.78;;
10801;SDS011;5453;50.852;7.102;2023-08-30T05:06:31;6.43;;;3.40;;
10801;SDS011;5453;50.852;7.102;2023-08-30T05:09:04;6.57;;;3.72;;
10801;SDS011;5453;50.852;7.102;2023-08-30T05:11:40;6.45;;;3.78;;
10801;SDS011;5453;50.852;7.102;2023-08-30T05:14:13;4.82;;;3.10;;
10801;SDS011;5453;50.852;7.102;2023-08-30T05:16:45;6.90;;;3.38;;
10801;SDS011;5453;50.852;7.102;2023-08-30T05:19:19;3.80;;;2.80;;
10801;SDS011;5453;50.852;7.102;2023-08-30T05:21:53;6.20;;;3.58;;
10801;SDS011;5453;50.852;7.102;2023-08-30T05:24:26;6.25;;;3.70;;
10801;SDS011;5453;50.852;7.102;2023-08-30T05:26:58;6.80;;;3.65;;
10801;SDS011;5453;50.852;7.102;2023-08-30T05:29:33;4.90;;;3.35;;
10801;SDS011;5453;50.852;7.102;2023-08-30T05:32:06;7.60;;;4.03;;
10801;SDS011;5453;50.852;7.102;2023-08-30T05:35:12;7.43;;;4.22;;
10801;SDS011;5453;50.852;7.102;2023-08-30T05:38:08;6.85;;;4.03;;
10801;SDS011;5453;50.852;7.102;2023-08-30T05:41:10;6.28;;;3.50;;
10801;SDS011;5453;50.852;7.102;2023-08-30T05:43:42;6.57;;;3.70;;
10801;SDS011;5453;50.852;7.102;2023-08-30T05:46:15;6.47;;;3.90;;
10801;SDS011;5453;50.852;7.102;2023-08-30T05:48:47;6.78;;;4.32;;
10801;SDS011;5453;50.852;7.102;2023-08-30T05:51:21;7.47;;;3.72;;
10801;SDS011;5453;50.852;7.102;2023-08-30T05:53:53;6.38;;;3.80;;
10801;SDS011;5453;50.852;7.102;2023-08-30T05:56:26;7.65;;;4.05;;
10801;SDS011;5453;50.852;7.102;2023-08-30T05:58:58;8.52;;;4.32;;
10801;SDS011;5453;50.852;7.102;2023-08-30T06:01:30;8.13;;;4.00;;
10801;SDS011;5453;50.852;7.102;2023-08-30T06:04:02;7.03;;;3.95;;
10801;SDS011;5453;50.852;7.102;2023-08-30T06:06:38;7.03;;;3.92;;
10801;SDS011;5453;50.852;7.102;2023-08-30T06:09:10;6.60;;;3.63;;
10801;SDS011;5453;50.852;7.102;2023-08-30T06:11:42;8.50;;;4.15;;
10801;SDS011;5453;50.852;7.102;2023-08-30T06:14:14;5.25;;;3.42;;
10801;SDS011;5453;50.852;7.102;2023-08-30T06:16:47;5.72;;;3.53;;
10801;SDS011;5453;50.852;7.102;2023-08-30T06:19:19;7.00;;;3.88;;
10801;SDS011;5453;50.852;7.102;2023-08-30T06:21:52;8.20;;;4.15;;
10801;SDS011;5453;50.852;7.102;2023-08-30T06:24:24;8.02;;;3.97;;
10801;SDS011;5453;50.852;7.102;2023-08-30T06:26:56;7.22;;;4.32;;
10801;SDS011;5453;50.852;7.102;2023-08-30T06:29:30;6.65;;;3.60;;
10801;SDS011;5453;50.852;7.102;2023-08-30T06:32:02;8.32;;;4.15;;
10801;SDS011;5453;50.852;7.102;2023-08-30T06:34:35;7.68;;;4.35;;
10801;SDS011;5453;50.852;7.102;2023-08-30T06:37:08;6.60;;;4.03;;
10801;SDS011;5453;50.852;7.102;2023-08-30T06:39:40;7.13;;;3.80;;
10801;SDS011;5453;50.852;7.102;2023-08-30T06:42:12;6.75;;;3.70;;
10801;SDS011;5453;50.852;7.102;2023-08-30T06:44:44;8.20;;;3.92;;
10801;SDS011;5453;50.852;7.102;2023-08-30T06:47:17;8.73;;;5.10;;
10801;SDS011;5453;50.852;7.102;2023-08-30T06:49:49;6.60;;;4.25;;
10801;SDS011;5453;50.852;7.102;2023-08-30T06:52:22;6.80;;;4.38;;
10801;SDS011;5453;50.852;7.102;2023-08-30T06:54:54;9.02;;;3.55;;
10801;SDS011;5453;50.852;7.102;2023-08-30T06:57:26;7.57;;;4.00;;
10801;SDS011;5453;50.852;7.102;2023-08-30T06:59:59;9.48;;;4.13;;
10801;SDS011;5453;50.852;7.102;2023-08-30T07:02:37;7.68;;;3.80;;
10801;SDS011;5453;50.852;7.102;2023-08-30T07:05:09;6.18;;;3.45;;
10801;SDS011;5453;50.852;7.102;2023-08-30T07:07:43;7.07;;;4.10;;
10801;SDS011;5453;50.852;7.102;2023-08-30T07:10:15;8.40;;;4.32;;
10801;SDS011;5453;50.852;7.102;2023-08-30T07:12:47;7.18;;;3.85;;
10801;SDS011;5453;50.852;7.102;2023-08-30T07:15:19;8.27;;;4.72;;
10801;SDS011;5453;50.852;7.102;2023-08-30T07:17:51;5.80;;;3.38;;
10801;SDS011;5453;50.852;7.102;2023-08-30T07:20:24;5.57;;;3.47;;
10801;SDS011;5453;50.852;7.102;2023-08-30T07:22:57;6.80;;;3.67;;
10801;SDS011;5453;50.852;7.102;2023-08-30T07:25:29;6.15;;;3.67;;
10801;SDS011;5453;50.852;7.102;2023-08-30T07:28:03;5.82;;;3.58;;
10801;SDS011;5453;50.852;7.102;2023-08-30T07:30:35;6.63;;;3.85;;
10801;SDS011;5453;50.852;7.102;2023-08-30T07:33:08;6.90;;;3.83;;
10801;SDS011;5453;50.852;7.102;2023-08-30T07:35:40;5.70;;;3.28;;
10801;SDS011;5453;50.852;7.102;2023-08-30T07:38:13;5.32;;;3.15;;
10801;SDS011;5453;50.852;7.102;2023-08-30T07:40:45;5.00;;;3.13;;
10801;SDS011;5453;50.852;7.102;2023-08-30T07:43:17;6.40;;;3.33;;
10801;SDS011;5453;50.852;7.102;2023-08-30T07:45:50;5.30;;;2.85;;
10801;SDS011;5453;50.852;7.102;2023-08-30T07:48:22;6.30;;;3.50;;
10801;SDS011;5453;50.852;7.102;2023-08-30T07:50:54;5.55;;;3.08;;
10801;SDS011;5453;50.852;7.102;2023-08-30T07:54:30;4.85;;;2.78;;
10801;SDS011;5453;50.852;7.102;2023-08-30T07:57:03;6.75;;;2.88;;
10801;SDS011;5453;50.852;7.102;2023-08-30T07:59:36;4.78;;;2.72;;
10801;SDS011;5453;50.852;7.102;2023-08-30T08:02:08;4.40;;;2.65;;
10801;SDS011;5453;50.852;7.102;2023-08-30T08:04:41;4.43;;;2.42;;
10801;SDS011;5453;50.852;7.102;2023-08-30T08:07:13;5.00;;;2.50;;
10801;SDS011;5453;50.852;7.102;2023-08-30T08:09:47;4.50;;;2.40;;
10801;SDS011;5453;50.852;7.102;2023-08-30T08:12:19;4.20;;;2.30;;
10801;SDS011;5453;50.852;7.102;2023-08-30T08:14:52;5.80;;;2.83;;
10801;SDS011;5453;50.852;7.102;2023-08-30T08:17:24;4.13;;;2.90;;
10801;SDS011;5453;50.852;7.102;2023-08-30T08:19:57;4.13;;;2.42;;
10801;SDS011;5453;50.852;7.102;2023-08-30T08:22:29;3.63;;;2.05;;
10801;SDS011;5453;50.852;7.102;2023-08-30T08:25:03;3.22;;;1.88;;
10801;SDS011;5453;50.852;7.102;2023-08-30T08:27:36;3.28;;;2.03;;
10801;SDS011;5453;50.852;7.102;2023-08-30T08:30:09;4.32;;;2.00;;
10801;SDS011;5453;50.852;7.102;2023-08-30T08:32:42;3.25;;;1.90;;
10801;SDS011;5453;50.852;7.102;2023-08-30T08:35:16;3.00;;;1.85;;
10801;SDS011;5453;50.852;7.102;2023-08-30T08:37:49;4.78;;;2.55;;
10801;SDS011;5453;50.852;7.102;2023-08-30T08:40:23;4.10;;;1.98;;
10801;SDS011;5453;50.852;7.102;2023-08-30T08:42:55;4.10;;;1.73;;
10801;SDS011;5453;50.852;7.102;2023-08-30T08:45:28;4.60;;;1.90;;
10801;SDS011;5453;50.852;7.102;2023-08-30T08:48:01;2.80;;;1.65;;
10801;SDS011;5453;50.852;7.102;2023-08-30T08:50:35;2.47;;;1.27;;
10801;SDS011;5453;50.852;7.102;2023-08-30T08:53:08;3.50;;;1.80;;
10801;SDS011;5453;50.852;7.102;2023-08-30T08:55:42;3.05;;;1.55;;
10801;SDS011;5453;50.852;7.102;2023-08-30T08:58:17;2.88;;;1.50;;
10801;SDS011;5453;50.852;7.102;2023-08-30T09:00:50;2.65;;;1.40;;
10801;SDS011;5453;50.852;7.102;2023-08-30T09:03:22;2.35;;;1.50;;
10801;SDS011;5453;50.852;7.102;2023-08-30T09:05:55;2.58;;;1.38;;
10801;SDS011;5453;50.852;7.102;2023-08-30T09:08:27;2.10;;;1.40;;
10801;SDS011;5453;50.852;7.102;2023-08-30T09:11:02;2.22;;;1.30;;
10801;SDS011;5453;50.852;7.102;2023-08-30T09:13:34;2.97;;;1.50;;
10801;SDS011;5453;50.852;7.102;2023-08-30T09:16:11;3.05;;;1.50;;
10801;SDS011;5453;50.852;7.102;2023-08-30T09:18:44;2.67;;;1.38;;
10801;SDS011;5453;50.852;7.102;2023-08-30T09:21:28;2.55;;;1.65;;
10801;SDS011;5453;50.852;7.102;2023-08-30T09:24:02;2.13;;;1.42;;
10801;SDS011;5453;50.852;7.102;2023-08-30T09:26:37;4.25;;;1.70;;
10801;SDS011;5453;50.852;7.102;2023-08-30T09:29:10;2.63;;;1.60;;
10801;SDS011;5453;50.852;7.102;2023-08-30T09:31:42;2.22;;;1.45;;
10801;SDS011;5453;50.852;7.102;2023-08-30T09:34:15;3.50;;;1.70;;
10801;SDS011;5453;50.852;7.102;2023-08-30T09:36:47;3.95;;;1.52;;
10801;SDS011;5453;50.852;7.102;2023-08-30T09:39:20;2.47;;;1.38;;
10801;SDS011;5453;50.852;7.102;2023-08-30T09:41:54;4.00;;;1.67;;
10801;SDS011;5453;50.852;7.102;2023-08-30T09:44:29;2.90;;;1.42;;
10801;SDS011;5453;50.852;7.102;2023-08-30T09:47:02;4.55;;;1.88;;
10801;SDS011;5453;50.852;7.102;2023-08-30T09:49:37;2.35;;;1.70;;
10801;SDS011;5453;50.852;7.102;2023-08-30T09:52:15;2.38;;;1.58;;
10801;SDS011;5453;50.852;7.102;2023-08-30T09:54:48;3.63;;;1.38;;
10801;SDS011;5453;50.852;7.102;2023-08-30T09:57:22;2.83;;;1.40;;
10801;SDS011;5453;50.852;7.102;2023-08-30T09:59:55;2.17;;;1.50;;
10801;SDS011;5453;50.852;7.102;2023-08-30T10:02:30;3.17;;;1.40;;
10801;SDS011;5453;50.852;7.102;2023-08-30T10:05:04;3.05;;;1.35;;
10801;SDS011;5453;50.852;7.102;2023-08-30T10:07:37;3.28;;;1.52;;
10801;SDS011;5453;50.852;7.102;2023-08-30T10:10:10;3.08;;;1.63;;
10801;SDS011;5453;50.852;7.102;2023-08-30T10:12:45;2.70;;;1.80;;
10801;SDS011;5453;50.852;7.102;2023-08-30T10:15:18;2.38;;;1.23;;
10801;SDS011;5453;50.852;7.102;2023-08-30T10:17:53;3.63;;;1.70;;
10801;SDS011;5453;50.852;7.102;2023-08-30T10:20:29;2.78;;;1.65;;
10801;SDS011;5453;50.852;7.102;2023-08-30T10:23:02;1.83;;;1.20;;
10801;SDS011;5453;50.852;7.102;2023-08-30T10:25:35;3.50;;;1.60;;
10801;SDS011;5453;50.852;7.102;2023-08-30T10:28:09;3.53;;;1.60;;
10801;SDS011;5453;50.852;7.102;2023-08-30T10:30:42;3.80;;;1.60;;
10801;SDS011;5453;50.852;7.102;2023-08-30T10:33:15;4.28;;;1.88;;
10801;SDS011;5453;50.852;7.102;2023-08-30T10:35:48;3.70;;;1.60;;
10801;SDS011;5453;50.852;7.102;2023-08-30T10:38:25;3.17;;;1.90;;
10801;SDS011;5453;50.852;7.102;2023-08-30T10:41:05;3.40;;;1.73;;
10801;SDS011;5453;50.852;7.102;2023-08-30T10:43:40;2.72;;;1.58;;
10801;SDS011;5453;50.852;7.102;2023-08-30T10:46:12;5.25;;;1.83;;
10801;SDS011;5453;50.852;7.102;2023-08-30T10:48:44;3.60;;;2.00;;
10801;SDS011;5453;50.852;7.102;2023-08-30T10:56:28;3.05;;;2.10;;
10801;SDS011;5453;50.852;7.102;2023-08-30T10:59:04;2.45;;;1.75;;
10801;SDS011;5453;50.852;7.102;2023-08-30T11:01:47;3.70;;;1.88;;
10801;SDS011;5453;50.852;7.102;2023-08-30T11:04:21;3.08;;;1.77;;
10801;SDS011;5453;50.852;7.102;2023-08-30T11:06:54;4.07;;;2.10;;
10801;SDS011;5453;50.852;7.102;2023-08-30T11:09:27;4.18;;;1.83;;
10801;SDS011;5453;50.852;7.102;2023-08-30T11:12:04;4.03;;;2.20;;
10801;SDS011;5453;50.852;7.102;2023-08-30T11:14:38;3.38;;;1.92;;
10801;SDS011;5453;50.852;7.102;2023-08-30T11:17:12;4.35;;;2.15;;
10801;SDS011;5453;50.852;7.102;2023-08-30T11:19:44;3.00;;;1.77;;
10801;SDS011;5453;50.852;7.102;2023-08-30T11:22:17;2.65;;;1.73;;
10801;SDS011;5453;50.852;7.102;2023-08-30T11:24:51;3.53;;;1.70;;
10801;SDS011;5453;50.852;7.102;2023-08-30T11:27:24;3.90;;;1.80;;
10801;SDS011;5453;50.852;7.102;2023-08-30T11:29:59;3.15;;;1.77;;
10801;SDS011;5453;50.852;7.102;2023-08-30T11:32:33;3.20;;;1.95;;
10801;SDS011;5453;50.852;7.102;2023-08-30T11:35:06;5.15;;;2.53;;
10801;SDS011;5453;50.852;7.102;2023-08-30T11:37:40;6.65;;;2.00;;
10801;SDS011;5453;50.852;7.102;2023-08-30T11:40:12;3.95;;;2.25;;
10801;SDS011;5453;50.852;7.102;2023-08-30T11:42:45;3.40;;;1.60;;
10801;SDS011;5453;50.852;7.102;2023-08-30T11:45:20;3.47;;;1.90;;
10801;SDS011;5453;50.852;7.102;2023-08-30T11:47:53;2.92;;;1.50;;
10801;SDS011;5453;50.852;7.102;2023-08-30T11:50:26;4.10;;;1.83;;
10801;SDS011;5453;50.852;7.102;2023-08-30T11:52:59;4.22;;;1.70;;
10801;SDS011;5453;50.852;7.102;2023-08-30T11:55:32;4.00;;;1.88;;
10801;SDS011;5453;50.852;7.102;2023-08-30T11:58:05;3.95;;;1.63;;
10801;SDS011;5453;50.852;7.102;2023-08-30T12:00:41;5.53;;;2.15;;
10801;SDS011;5453;50.852;7.102;2023-08-30T12:03:13;3.28;;;1.65;;
10801;SDS011;5453;50.852;7.102;2023-08-30T12:05:46;3.28;;;1.90;;
10801;SDS011;5453;50.852;7.102;2023-08-30T12:08:20;3.63;;;2.10;;
10801;SDS011;5453;50.852;7.102;2023-08-30T12:10:53;3.38;;;1.80;;
10801;SDS011;5453;50.852;7.102;2023-08-30T12:13:28;2.58;;;1.75;;
10801;SDS011;5453;50.852;7.102;2023-08-30T12:16:03;2.75;;;1.60;;
10801;SDS011;5453;50.852;7.102;2023-08-30T12:18:35;2.95;;;1.65;;
10801;SDS011;5453;50.852;7.102;2023-08-30T12:21:08;2.65;;;1.70;;
10801;SDS011;5453;50.852;7.102;2023-08-30T12:23:40;3.17;;;1.50;;
10801;SDS011;5453;50.852;7.102;2023-08-30T12:26:12;3.08;;;1.63;;
10801;SDS011;5453;50.852;7.102;2023-08-30T12:28:46;3.25;;;1.65;;
10801;SDS011;5453;50.852;7.102;2023-08-30T12:31:20;2.03;;;1.40;;
10801;SDS011;5453;50.852;7.102;2023-08-30T12:33:53;2.85;;;1.85;;
10801;SDS011;5453;50.852;7.102;2023-08-30T12:36:26;2.80;;;1.58;;
10801;SDS011;5453;50.852;7.102;2023-08-30T12:38:58;3.05;;;1.83;;
10801;SDS011;5453;50.852;7.102;2023-08-30T12:41:31;4.07;;;2.10;;
10801;SDS011;5453;50.852;7.102;2023-08-30T12:44:03;2.47;;;1.80;;
10801;SDS011;5453;50.852;7.102;2023-08-30T12:46:37;2.50;;;1.80;;
10801;SDS011;5453;50.852;7.102;2023-08-30T12:49:10;3.85;;;1.67;;
10801;SDS011;5453;50.852;7.102;2023-08-30T12:51:42;3.85;;;2.00;;
10801;SDS011;5453;50.852;7.102;2023-08-30T12:54:14;3.60;;;2.20;;
10801;SDS011;5453;50.852;7.102;2023-08-30T12:56:47;2.58;;;1.85;;
10801;SDS011;5453;50.852;7.102;2023-08-30T12:59:19;4.88;;;2.25;;
10801;SDS011;5453;50.852;7.102;2023-08-30T13:01:53;3.72;;;2.22;;
10801;SDS011;5453;50.852;7.102;2023-08-30T13:04:25;4.18;;;2.05;;
10801;SDS011;5453;50.852;7.102;2023-08-30T13:06:58;4.72;;;2.00;;
10801;SDS011;5453;50.852;7.102;2023-08-30T13:09:30;3.22;;;1.90;;
10801;SDS011;5453;50.852;7.102;2023-08-30T13:12:03;4.15;;;2.00;;
10801;SDS011;5453;50.852;7.102;2023-08-30T13:14:36;2.35;;;1.55;;
10801;SDS011;5453;50.852;7.102;2023-08-30T13:17:09;3.50;;;2.20;;
10801;SDS011;5453;50.852;7.102;2023-08-30T13:19:42;2.75;;;1.80;;
10801;SDS011;5453;50.852;7.102;2023-08-30T13:22:14;3.28;;;2.00;;
10801;SDS011;5453;50.852;7.102;2023-08-30T13:24:47;2.97;;;1.75;;
10801;SDS011;5453;50.852;7.102;2023-08-30T13:27:19;3.42;;;1.83;;
10801;SDS011;5453;50.852;7.102;2023-08-30T13:29:51;2.72;;;1.55;;
10801;SDS011;5453;50.852;7.102;2023-08-30T13:32:25;2.97;;;1.95;;
10801;SDS011;5453;50.852;7.102;2023-08-30T13:34:58;2.38;;;2.10;;
10801;SDS011;5453;50.852;7.102;2023-08-30T13:37:30;2.63;;;1.83;;
10801;SDS011;5453;50.852;7.102;2023-08-30T13:40:03;4.85;;;2.03;;
10801;SDS011;5453;50.852;7.102;2023-08-30T13:42:36;4.55;;;2.25;;
10801;SDS011;5453;50.852;7.102;2023-08-30T13:45:09;3.92;;;2.20;;
10801;SDS011;5453;50.852;7.102;2023-08-30T13:50:17;3.17;;;1.85;;
10801;SDS011;5453;50.852;7.102;2023-08-30T13:52:49;2.63;;;1.80;;
10801;SDS011;5453;50.852;7.102;2023-08-30T13:55:22;3.80;;;2.10;;
10801;SDS011;5453;50.852;7.102;2023-08-30T13:57:54;4.30;;;2.20;;
10801;SDS011;5453;50.852;7.102;2023-08-30T14:00:26;3.05;;;1.92;;
10801;SDS011;5453;50.852;7.102;2023-08-30T14:03:00;3.20;;;1.95;;
10801;SDS011;5453;50.852;7.102;2023-08-30T14:05:32;3.83;;;2.20;;
10801;SDS011;5453;50.852;7.102;2023-08-30T14:08:05;2.97;;;1.98;;
10801;SDS011;5453;50.852;7.102;2023-08-30T14:10:37;4.43;;;2.33;;
10801;SDS011;5453;50.852;7.102;2023-08-30T14:13:10;3.92;;;2.28;;
10801;SDS011;5453;50.852;7.102;2023-08-30T14:15:42;3.35;;;2.10;;
10801;SDS011;5453;50.852;7.102;2023-08-30T14:18:16;3.80;;;2.10;;
10801;SDS011;5453;50.852;7.102;2023-08-30T14:20:48;2.80;;;1.60;;
10801;SDS011;5453;50.852;7.102;2023-08-30T14:23:20;2.78;;;1.45;;
10801;SDS011;5453;50.852;7.102;2023-08-30T14:25:57;2.50;;;1.10;;
10801;SDS011;5453;50.852;7.102;2023-08-30T14:28:30;1.55;;;0.90;;
10801;SDS011;5453;50.852;7.102;2023-08-30T14:31:02;1.10;;;0.80;;
10801;SDS011;5453;50.852;7.102;2023-08-30T14:33:36;1.88;;;1.10;;
10801;SDS011;5453;50.852;7.102;2023-08-30T14:36:11;4.05;;;1.30;;
10801;SDS011;5453;50.852;7.102;2023-08-30T14:38:43;1.90;;;1.13;;
10801;SDS011;5453;50.852;7.102;2023-08-30T14:41:16;2.25;;;1.20;;
10801;SDS011;5453;50.852;7.102;2023-08-30T14:43:48;1.35;;;1.25;;
10801;SDS011;5453;50.852;7.102;2023-08-30T14:46:20;3.22;;;1.70;;
10801;SDS011;5453;50.852;7.102;2023-08-30T14:48:54;4.15;;;1.52;;
10801;SDS011;5453;50.852;7.102;2023-08-30T14:51:26;4.13;;;1.80;;
10801;SDS011;5453;50.852;7.102;2023-08-30T14:53:59;4.88;;;2.28;;
10801;SDS011;5453;50.852;7.102;2023-08-30T14:56:31;4.38;;;2.60;;
10801;SDS011;5453;50.852;7.102;2023-08-30T14:59:04;3.88;;;2.08;;
10801;SDS011;5453;50.852;7.102;2023-08-30T15:01:36;4.50;;;2.38;;
10801;SDS011;5453;50.852;7.102;2023-08-30T15:04:10;4.68;;;2.55;;
10801;SDS011;5453;50.852;7.102;2023-08-30T15:06:43;6.32;;;2.10;;
10801;SDS011;5453;50.852;7.102;2023-08-30T15:09:15;5.05;;;2.35;;
10801;SDS011;5453;50.852;7.102;2023-08-30T15:11:48;3.80;;;2.22;;
10801;SDS011;5453;50.852;7.102;2023-08-30T15:14:20;3.92;;;2.20;;
10801;SDS011;5453;50.852;7.102;2023-08-30T15:16:55;4.45;;;2.50;;
10801;SDS011;5453;50.852;7.102;2023-08-30T15:19:29;3.45;;;1.83;;
10801;SDS011;5453;50.852;7.102;2023-08-30T15:22:02;2.72;;;1.70;;
10801;SDS011;5453;50.852;7.102;2023-08-30T15:24:34;2.75;;;1.85;;
10801;SDS011;5453;50.852;7.102;2023-08-30T15:27:08;2.67;;;1.70;;
10801;SDS011;5453;50.852;7.102;2023-08-30T15:29:40;2.42;;;1.80;;
10801;SDS011;5453;50.852;7.102;2023-08-30T15:32:13;4.35;;;2.58;;
10801;SDS011;5453;50.852;7.102;2023-08-30T15:34:46;3.92;;;2.03;;
10801;SDS011;5453;50.852;7.102;2023-08-30T15:37:19;4.35;;;2.00;;
10801;SDS011;5453;50.852;7.102;2023-08-30T15:39:57;5.57;;;2.10;;
10801;SDS011;5453;50.852;7.102;2023-08-30T15:42:34;2.80;;;1.85;;
10801;SDS011;5453;50.852;7.102;2023-08-30T15:45:07;5.68;;;2.00;;
10801;SDS011;5453;50.852;7.102;2023-08-30T15:47:40;3.10;;;1.60;;
10801;SDS011;5453;50.852;7.102;2023-08-30T15:50:14;4.32;;;2.30;;